Time;durP1;ratioP1;P1;durP2;ratioP2;P2;SDS_P1;SDS_P2;PMS_P1;PMS_P2;Temp;Humidity;BMP_temperature;BMP_pressure;BME280_temperature;BME280_humidity;BME280_pressure;Samples;Min_cycle;Max_cycle;Signal;HPM_P1;HPM_P2
2022/05/20 00:01:21;;;;;;;6.15;3.40;;;14.00;99.90;;;;;;4218692;28;20110;-86
2022/05/20 00:03:22;;;;;;;6.80;3.90;;;14.10;99.90;;;;;;4237342;27;20407;-86
2022/05/20 00:05:24;;;;;;;6.50;3.72;;;14.10;99.90;;;;;;4203050;28;20051;-85
2022/05/20 00:07:25;;;;;;;6.32;4.30;;;14.10;99.90;;;;;;4202572;28;20107;-86
2022/05/20 00:09:26;;;;;;;8.02;3.97;;;14.00;99.90;;;;;;4202138;28;20088;-86
2022/05/20 00:11:27;;;;;;;6.15;4.13;;;14.00;99.90;;;;;;4246138;27;20058;-86
2022/05/20 00:13:28;;;;;;;7.10;3.90;;;13.90;99.90;;;;;;4228662;28;20044;-85
2022/05/20 00:15:29;;;;;;;9.80;4.10;;;13.90;99.90;;;;;;4237296;27;20180;-84
2022/05/20 00:17:30;;;;;;;9.82;3.90;;;13.80;99.90;;;;;;4243488;27;20032;-86
2022/05/20 00:19:32;;;;;;;6.68;3.88;;;13.80;99.90;;;;;;4219485;28;20056;-85
2022/05/20 00:21:34;;;;;;;16.25;5.25;;;13.70;99.90;;;;;;4236790;27;20150;-86
2022/05/20 00:23:35;;;;;;;6.05;4.50;;;13.70;99.90;;;;;;4245572;27;20044;-86
2022/05/20 00:25:47;;;;;;;6.32;4.55;;;13.70;99.90;;;;;;4202478;28;20063;-86
2022/05/20 00:27:48;;;;;;;9.73;4.30;;;13.60;99.90;;;;;;4211069;28;20413;-85
2022/05/20 00:29:49;;;;;;;9.90;4.97;;;13.60;99.90;;;;;;4202556;28;20059;-85
2022/05/20 00:31:50;;;;;;;8.15;5.28;;;13.60;99.90;;;;;;4218836;28;20052;-86
2022/05/20 00:33:52;;;;;;;8.23;4.75;;;13.70;99.90;;;;;;4220307;28;20419;-85
2022/05/20 00:35:53;;;;;;;8.38;5.45;;;13.70;99.90;;;;;;4245313;27;20043;-85
2022/05/20 00:37:54;;;;;;;5.72;4.53;;;13.70;99.90;;;;;;4245617;27;20050;-86
2022/05/20 00:39:55;;;;;;;8.35;5.22;;;13.70;99.90;;;;;;4227831;28;20044;-85
2022/05/20 00:41:55;;;;;;;10.35;5.40;;;13.60;99.90;;;;;;4215906;28;20044;-86
2022/05/20 00:43:58;;;;;;;11.40;6.38;;;13.60;99.90;;;;;;4229624;28;20051;-86
2022/05/20 00:46:02;;;;;;;8.27;5.30;;;13.60;99.90;;;;;;4246131;27;20128;-85
2022/05/20 00:48:04;;;;;;;17.33;7.38;;;13.60;99.90;;;;;;4223247;28;20503;-86
2022/05/20 00:50:10;;;;;;;11.85;6.43;;;13.60;99.90;;;;;;4212514;28;20452;-85
2022/05/20 00:52:15;;;;;;;9.38;5.57;;;13.50;99.90;;;;;;4227484;28;20067;-85
2022/05/20 00:54:31;;;;;;;11.57;5.90;;;13.50;99.90;;;;;;4225408;28;20484;-85
2022/05/20 00:56:36;;;;;;;8.15;4.95;;;13.50;99.90;;;;;;4208427;28;20056;-85
2022/05/20 00:58:40;;;;;;;8.82;5.03;;;13.50;99.90;;;;;;4249527;27;20027;-85
2022/05/20 01:00:49;;;;;;;8.52;5.10;;;13.40;99.90;;;;;;4225816;28;20123;-86
2022/05/20 01:02:56;;;;;;;8.82;5.22;;;13.40;99.90;;;;;;4240604;27;20040;-87
2022/05/20 01:05:03;;;;;;;8.85;5.53;;;12.50;99.90;;;;;;4232153;28;20043;-86
2022/05/20 01:07:05;;;;;;;8.63;4.57;;;13.30;99.90;;;;;;4224019;28;20504;-85
2022/05/20 01:09:06;;;;;;;10.73;6.18;;;13.30;99.90;;;;;;4216897;28;20507;-86
2022/05/20 01:11:07;;;;;;;9.88;5.35;;;13.20;99.90;;;;;;4254089;27;20043;-86
2022/05/20 01:13:09;;;;;;;8.60;5.00;;;13.20;99.90;;;;;;4254388;27;20047;-86
2022/05/20 01:15:10;;;;;;;10.65;5.13;;;13.20;99.90;;;;;;4257303;27;20071;-86
2022/05/20 01:17:11;;;;;;;10.15;5.07;;;13.10;99.90;;;;;;4243064;28;20046;-86
2022/05/20 01:19:22;;;;;;;11.50;4.97;;;13.10;99.90;;;;;;4254589;27;20043;-86
2022/05/20 01:21:23;;;;;;;10.27;4.80;;;13.10;99.90;;;;;;4236083;28;20051;-86
2022/05/20 01:23:27;;;;;;;7.57;4.70;;;13.00;99.90;;;;;;4242342;27;20078;-87
2022/05/20 01:25:30;;;;;;;15.77;6.88;;;13.00;99.90;;;;;;4236507;28;20039;-87
2022/05/20 01:27:30;;;;;;;8.68;5.47;;;13.00;99.90;;;;;;4240261;27;20131;-87
2022/05/20 01:29:33;;;;;;;8.70;5.90;;;12.90;99.90;;;;;;4219310;28;20044;-86
2022/05/20 01:31:33;;;;;;;10.45;5.72;;;12.90;99.90;;;;;;4218617;28;20063;-84
2022/05/20 01:33:47;;;;;;;11.23;6.10;;;13.00;99.90;;;;;;4231068;28;20435;-86
2022/05/20 01:35:48;;;;;;;9.98;6.07;;;12.80;99.90;;;;;;4227874;28;20047;-86
2022/05/20 01:37:50;;;;;;;11.38;6.53;;;12.80;99.90;;;;;;4234918;27;20120;-86
2022/05/20 01:39:51;;;;;;;13.38;6.95;;;12.80;99.90;;;;;;4199854;28;20105;-85
2022/05/20 01:42:16;;;;;;;17.40;7.70;;;13.20;99.90;;;;;;4246213;27;20032;-86
2022/05/20 01:44:25;;;;;;;13.40;8.27;;;12.90;99.90;;;;;;4235422;27;20036;-86
2022/05/20 01:46:44;;;;;;;15.65;7.35;;;12.70;99.90;;;;;;4244506;27;20046;-85
2022/05/20 01:49:17;;;;;;;12.48;7.47;;;12.70;99.90;;;;;;4218250;28;20071;-86
2022/05/20 01:51:23;;;;;;;14.07;8.80;;;12.70;99.90;;;;;;4242324;27;20494;-85
2022/05/20 01:53:27;;;;;;;17.13;8.93;;;12.70;99.90;;;;;;4237357;27;20072;-86
2022/05/20 01:55:37;;;;;;;16.13;9.02;;;12.60;99.90;;;;;;4218130;28;20040;-86
2022/05/20 01:57:41;;;;;;;18.10;9.07;;;12.60;99.90;;;;;;4230179;28;20489;-87
2022/05/20 01:59:47;;;;;;;14.30;8.70;;;12.60;99.90;;;;;;4235388;27;20075;-85
2022/05/20 02:02:08;;;;;;;13.98;8.23;;;12.60;99.90;;;;;;4217842;28;20440;-86
2022/05/20 02:04:25;;;;;;;12.38;7.78;;;12.60;99.90;;;;;;4227161;28;20476;-86
2022/05/20 02:06:43;;;;;;;10.52;7.93;;;12.60;99.90;;;;;;4227673;28;20129;-86
2022/05/20 02:09:02;;;;;;;17.10;8.27;;;12.60;99.90;;;;;;4218202;28;20119;-86
2022/05/20 02:11:36;;;;;;;15.48;8.52;;;12.50;99.90;;;;;;4225536;28;20063;-86
2022/05/20 02:13:45;;;;;;;17.60;9.38;;;12.50;99.90;;;;;;4231779;28;20138;-86
2022/05/20 02:15:57;;;;;;;17.25;8.55;;;12.50;99.90;;;;;;4216449;28;20109;-86
2022/05/20 02:18:02;;;;;;;13.30;8.23;;;12.40;99.90;;;;;;4226273;28;20088;-86
2022/05/20 02:20:32;;;;;;;17.45;8.77;;;12.40;99.90;;;;;;4244454;27;20063;-86
2022/05/20 02:22:39;;;;;;;13.27;8.75;;;12.40;99.90;;;;;;4233804;27;20107;-86
2022/05/20 02:24:42;;;;;;;16.10;8.90;;;12.40;99.90;;;;;;4234678;27;20047;-86
2022/05/20 02:26:51;;;;;;;14.18;8.40;;;12.40;99.90;;;;;;4236992;27;20154;-86
2022/05/20 02:29:13;;;;;;;13.43;7.72;;;12.40;99.90;;;;;;4218489;28;20122;-86
2022/05/20 02:31:21;;;;;;;11.93;7.25;;;12.40;99.90;;;;;;4240584;27;20046;-86
2022/05/20 02:33:25;;;;;;;14.05;8.23;;;12.40;99.90;;;;;;4223610;28;20492;-85
2022/05/20 02:35:26;;;;;;;18.67;8.10;;;12.50;99.90;;;;;;4221642;28;20065;-86
2022/05/20 02:37:30;;;;;;;11.23;7.72;;;12.40;99.90;;;;;;4216269;28;20471;-86
2022/05/20 02:39:31;;;;;;;13.85;7.20;;;12.30;99.90;;;;;;4204921;28;20075;-86
2022/05/20 02:41:32;;;;;;;14.35;8.07;;;12.30;99.90;;;;;;4225568;28;20048;-86
2022/05/20 02:43:33;;;;;;;16.45;8.25;;;12.30;99.90;;;;;;4220378;28;20058;-86
2022/05/20 02:45:35;;;;;;;12.10;7.20;;;12.30;99.90;;;;;;4239218;27;20049;-86
2022/05/20 02:47:37;;;;;;;11.48;7.70;;;12.30;99.90;;;;;;4225469;28;20047;-84
2022/05/20 02:49:38;;;;;;;14.52;8.10;;;12.20;99.90;;;;;;4228379;28;20043;-85
2022/05/20 02:51:38;;;;;;;15.85;8.43;;;12.30;99.90;;;;;;4225404;28;20051;-86
2022/05/20 02:53:39;;;;;;;11.93;7.70;;;12.60;99.90;;;;;;4225423;28;20039;-86
2022/05/20 02:55:40;;;;;;;11.02;7.65;;;12.30;99.90;;;;;;4232937;28;20123;-86
2022/05/20 02:57:42;;;;;;;14.57;7.93;;;12.30;99.90;;;;;;4223385;28;20078;-86
2022/05/20 03:04:23;;;;;;;13.10;7.28;;;12.40;99.90;;;;;;4234952;28;20047;-87
2022/05/20 03:06:23;;;;;;;15.77;7.80;;;12.40;99.90;;;;;;4234852;28;20100;-86
2022/05/20 03:08:24;;;;;;;16.75;8.00;;;12.30;99.90;;;;;;4224998;28;20047;-86
2022/05/20 03:10:25;;;;;;;11.95;7.05;;;12.30;99.90;;;;;;4224567;28;20077;-85
2022/05/20 03:12:26;;;;;;;14.20;8.23;;;12.30;99.90;;;;;;4246483;28;20042;-86
2022/05/20 03:14:26;;;;;;;13.07;8.35;;;12.30;99.90;;;;;;4235082;28;20160;-86
2022/05/20 03:16:27;;;;;;;14.18;7.47;;;12.30;99.90;;;;;;4225459;28;20043;-84
2022/05/20 03:18:28;;;;;;;14.73;8.43;;;12.20;99.90;;;;;;4216556;28;20447;-85
2022/05/20 03:20:28;;;;;;;19.33;7.70;;;12.20;99.90;;;;;;4223524;28;20094;-85
2022/05/20 03:22:33;;;;;;;13.05;7.80;;;12.20;99.90;;;;;;4242244;28;20051;-85
2022/05/20 03:24:34;;;;;;;14.90;7.40;;;12.30;99.90;;;;;;4228557;28;20058;-85
2022/05/20 03:26:35;;;;;;;12.60;6.78;;;12.30;99.90;;;;;;4224714;28;20491;-85
2022/05/20 03:28:36;;;;;;;17.17;8.15;;;12.20;99.90;;;;;;4231320;28;20044;-85
2022/05/20 03:30:36;;;;;;;13.70;7.68;;;12.20;99.90;;;;;;4242668;28;20107;-85
2022/05/20 03:32:39;;;;;;;11.82;7.28;;;12.10;99.90;;;;;;4242684;28;20043;-86
2022/05/20 03:34:40;;;;;;;13.02;7.70;;;12.20;99.90;;;;;;4216294;28;20052;-85
2022/05/20 03:36:45;;;;;;;17.73;8.05;;;12.20;99.90;;;;;;4244673;28;20066;-86
2022/05/20 03:38:45;;;;;;;18.60;7.78;;;12.10;99.90;;;;;;4234598;28;20043;-85
2022/05/20 03:40:46;;;;;;;13.60;7.82;;;12.20;99.90;;;;;;4224732;28;20127;-85
2022/05/20 03:42:47;;;;;;;17.83;8.02;;;12.20;99.90;;;;;;4227979;28;20467;-85
2022/05/20 03:44:47;;;;;;;14.80;8.32;;;12.10;99.90;;;;;;4242579;28;20035;-86
2022/05/20 03:46:53;;;;;;;11.88;7.72;;;12.10;99.90;;;;;;4234789;28;20035;-85
2022/05/20 03:48:54;;;;;;;17.83;7.78;;;12.10;99.90;;;;;;4244173;28;20088;-85
2022/05/20 03:50:55;;;;;;;17.35;8.25;;;12.10;99.90;;;;;;4201894;28;20048;-84
2022/05/20 03:52:55;;;;;;;17.27;7.80;;;12.10;99.90;;;;;;4243747;28;20578;-85
2022/05/20 03:54:58;;;;;;;15.45;8.60;;;12.10;99.90;;;;;;4243349;28;20043;-86
2022/05/20 03:57:00;;;;;;;16.65;8.68;;;12.10;99.90;;;;;;4236016;28;20092;-85
2022/05/20 03:59:02;;;;;;;17.15;7.30;;;12.10;99.90;;;;;;4241369;28;20081;-85
2022/05/20 04:03:24;;;;;;;13.57;7.63;;;12.20;99.90;;;;;;4224973;28;20052;-85
2022/05/20 04:05:25;;;;;;;15.32;8.43;;;12.10;99.90;;;;;;4213340;28;20089;-85
2022/05/20 04:07:26;;;;;;;19.95;8.93;;;12.10;99.90;;;;;;4225266;28;20098;-85
2022/05/20 04:09:27;;;;;;;16.35;8.55;;;12.00;99.90;;;;;;4256353;27;20467;-85
2022/05/20 04:11:28;;;;;;;17.95;8.60;;;12.40;99.90;;;;;;4243791;27;20035;-85
2022/05/20 04:13:29;;;;;;;12.75;7.78;;;12.20;99.90;;;;;;4248699;27;20072;-84
2022/05/20 04:15:29;;;;;;;16.25;8.40;;;12.20;99.90;;;;;;4230318;28;20382;-84
2022/05/20 04:17:30;;;;;;;18.40;8.50;;;12.20;99.90;;;;;;4221398;28;20131;-84
2022/05/20 04:19:33;;;;;;;19.23;9.20;;;12.50;99.90;;;;;;4236580;28;20043;-84
2022/05/20 04:21:34;;;;;;;16.45;7.90;;;12.20;99.90;;;;;;4234399;28;20051;-85
2022/05/20 04:23:34;;;;;;;15.68;8.52;;;12.30;99.90;;;;;;4254501;27;20373;-85
2022/05/20 04:25:35;;;;;;;17.77;9.00;;;12.30;99.90;;;;;;4236810;28;20100;-85
2022/05/20 04:27:36;;;;;;;16.55;9.63;;;12.30;99.90;;;;;;4229869;28;20047;-85
2022/05/20 04:29:37;;;;;;;18.52;7.97;;;12.40;99.90;;;;;;4240428;27;20047;-84
2022/05/20 04:31:47;;;;;;;18.05;8.57;;;12.40;99.90;;;;;;4249633;27;20414;-85
2022/05/20 04:33:48;;;;;;;16.67;8.68;;;12.30;99.90;;;;;;4215997;28;20044;-85
2022/05/20 04:35:50;;;;;;;18.45;9.05;;;12.30;99.90;;;;;;4248944;27;20039;-84
2022/05/20 04:37:51;;;;;;;17.35;8.20;;;12.40;99.90;;;;;;4254356;27;20047;-84
2022/05/20 04:39:53;;;;;;;16.02;9.30;;;12.40;99.90;;;;;;4238157;28;20139;-84
2022/05/20 04:46:58;;;;;;;19.38;9.57;;;12.30;99.90;;;;;;4260054;27;20043;-84
2022/05/20 04:49:00;;;;;;;21.50;9.25;;;12.30;99.90;;;;;;4233816;28;20040;-84
2022/05/20 04:51:00;;;;;;;16.35;9.02;;;12.60;99.90;;;;;;4223300;28;20052;-84
2022/05/20 04:53:02;;;;;;;19.52;9.82;;;12.40;99.90;;;;;;4238863;28;20463;-84
2022/05/20 04:55:05;;;;;;;16.25;8.95;;;12.60;99.90;;;;;;4218765;28;20052;-84
2022/05/20 04:57:08;;;;;;;16.70;9.52;;;12.30;99.90;;;;;;4234929;28;20044;-84
2022/05/20 04:59:11;;;;;;;16.02;9.82;;;12.30;99.90;;;;;;4254649;27;20039;-83
2022/05/20 05:01:12;;;;;;;19.98;9.77;;;12.40;99.90;;;;;;4237245;28;20071;-83
2022/05/20 05:03:14;;;;;;;21.55;10.68;;;12.40;99.90;;;;;;4215670;28;20052;-84
2022/05/20 05:05:19;;;;;;;20.40;10.25;;;12.70;99.90;;;;;;4241773;27;20203;-84
2022/05/20 05:07:19;;;;;;;17.60;9.80;;;12.50;99.90;;;;;;4238651;27;20051;-84
2022/05/20 05:09:20;;;;;;;18.98;8.98;;;12.50;99.90;;;;;;4220210;28;20436;-84
2022/05/20 05:11:21;;;;;;;18.15;8.48;;;12.50;99.90;;;;;;4221766;28;20172;-84
2022/05/20 05:13:22;;;;;;;14.75;9.20;;;12.60;99.90;;;;;;4237809;27;20100;-84
2022/05/20 05:15:24;;;;;;;17.08;8.73;;;12.60;99.90;;;;;;4222571;28;20055;-84
2022/05/20 05:19:46;;;;;;;21.05;8.68;;;13.00;99.90;;;;;;4223221;28;20052;-84
2022/05/20 05:21:48;;;;;;;18.90;7.85;;;12.80;99.90;;;;;;4231734;28;20063;-84
2022/05/20 05:23:50;;;;;;;15.18;8.45;;;12.80;99.90;;;;;;4235158;28;20095;-84
2022/05/20 05:25:52;;;;;;;18.13;8.20;;;12.60;99.90;;;;;;4242554;28;20123;-84
2022/05/20 05:27:54;;;;;;;18.30;7.43;;;13.00;99.90;;;;;;4253621;27;20043;-85
2022/05/20 05:29:55;;;;;;;17.85;7.78;;;13.00;99.90;;;;;;4246753;27;20035;-83
2022/05/20 05:31:57;;;;;;;14.07;7.72;;;13.10;99.90;;;;;;4246152;27;20055;-84
2022/05/20 05:33:58;;;;;;;16.30;8.05;;;13.10;99.90;;;;;;4245416;27;20048;-84
2022/05/20 05:35:59;;;;;;;14.50;7.50;;;13.10;99.90;;;;;;4210841;28;20049;-84
2022/05/20 05:38:00;;;;;;;15.65;7.22;;;13.20;99.90;;;;;;4248989;27;20050;-84
2022/05/20 05:40:01;;;;;;;14.52;6.93;;;13.20;99.90;;;;;;4248876;27;20052;-85
2022/05/20 05:42:02;;;;;;;10.13;6.05;;;13.30;99.90;;;;;;4217822;28;20043;-84
2022/05/20 05:44:03;;;;;;;12.27;7.72;;;13.40;99.90;;;;;;4214377;28;20069;-84
2022/05/20 05:46:04;;;;;;;13.15;6.72;;;13.40;99.90;;;;;;4231066;28;20051;-85
2022/05/20 05:48:08;;;;;;;15.13;6.20;;;13.50;99.90;;;;;;4239263;27;20071;-84
2022/05/20 05:50:15;;;;;;;12.32;7.32;;;13.60;99.90;;;;;;4233736;28;20046;-84
2022/05/20 05:52:17;;;;;;;16.90;7.38;;;13.70;99.90;;;;;;4226024;28;20100;-84
2022/05/20 05:54:18;;;;;;;13.32;8.25;;;13.60;99.90;;;;;;4230249;28;20056;-85
2022/05/20 05:56:19;;;;;;;13.38;7.63;;;13.80;99.90;;;;;;4228847;28;20072;-85
2022/05/20 05:58:20;;;;;;;17.52;7.13;;;13.80;99.90;;;;;;4242895;27;20043;-85
2022/05/20 06:00:21;;;;;;;11.65;6.82;;;13.80;99.90;;;;;;4248508;27;20031;-85
2022/05/20 06:02:24;;;;;;;13.65;7.32;;;13.80;99.90;;;;;;4246526;27;20118;-84
2022/05/20 06:04:25;;;;;;;15.10;5.95;;;13.90;99.90;;;;;;4204423;28;20131;-84
2022/05/20 06:06:26;;;;;;;15.25;6.68;;;13.90;99.90;;;;;;4219069;28;20044;-83
2022/05/20 06:08:27;;;;;;;12.60;7.07;;;14.00;99.90;;;;;;4227226;28;20490;-86
2022/05/20 06:10:29;;;;;;;15.27;7.03;;;14.10;99.90;;;;;;4218486;28;20105;-84
2022/05/20 06:12:31;;;;;;;12.27;6.78;;;14.30;99.90;;;;;;4241499;27;20038;-86
2022/05/20 06:14:32;;;;;;;13.18;6.90;;;14.40;99.90;;;;;;4229824;28;20047;-85
2022/05/20 06:16:33;;;;;;;10.30;5.97;;;14.50;99.90;;;;;;4230135;28;20050;-87
2022/05/20 06:18:34;;;;;;;8.80;4.95;;;14.70;99.90;;;;;;4229602;28;20040;-86
2022/05/20 06:20:35;;;;;;;10.60;4.30;;;14.80;99.90;;;;;;4246726;27;20062;-86
2022/05/20 06:22:36;;;;;;;6.85;4.32;;;14.90;99.90;;;;;;4222432;28;20127;-86
2022/05/20 06:24:37;;;;;;;8.80;5.38;;;14.90;99.90;;;;;;4242994;27;20035;-86
2022/05/20 06:26:41;;;;;;;8.25;4.82;;;14.80;99.90;;;;;;4243492;27;20128;-85
2022/05/20 06:28:42;;;;;;;9.73;5.28;;;14.80;99.90;;;;;;4225913;28;20412;-86
2022/05/20 06:30:43;;;;;;;15.32;5.43;;;14.80;99.90;;;;;;4226926;28;20109;-87
2022/05/20 06:32:44;;;;;;;8.93;5.00;;;14.70;99.90;;;;;;4246447;27;20104;-85
2022/05/20 06:41:42;;;;;;;12.98;4.93;;;15.20;99.90;;;;;;4227028;28;20127;-86
2022/05/20 06:43:43;;;;;;;11.90;4.78;;;15.30;99.90;;;;;;4229938;28;20036;-86
2022/05/20 06:45:47;;;;;;;10.40;4.72;;;15.50;99.90;;;;;;4248364;27;20551;-85
2022/05/20 06:47:47;;;;;;;8.30;4.93;;;15.60;99.90;;;;;;4228126;28;20419;-85
2022/05/20 06:49:48;;;;;;;14.30;5.53;;;15.60;99.90;;;;;;4245497;27;20039;-85
2022/05/20 06:51:50;;;;;;;13.38;4.95;;;15.60;99.90;;;;;;4244322;27;20042;-86
2022/05/20 06:53:53;;;;;;;14.57;5.07;;;15.60;99.90;;;;;;4228372;28;20518;-86
2022/05/20 06:55:53;;;;;;;11.77;4.97;;;15.60;99.90;;;;;;4246633;27;20051;-87
2022/05/20 06:57:54;;;;;;;12.18;5.00;;;15.50;99.90;;;;;;4246415;27;20455;-87
2022/05/20 07:00:03;;;;;;;12.35;4.90;;;15.50;99.90;;;;;;4229927;28;20071;-86
2022/05/20 07:02:04;;;;;;;9.60;5.22;;;15.60;99.90;;;;;;4227077;28;20571;-85
2022/05/20 07:04:06;;;;;;;10.48;4.63;;;15.60;99.90;;;;;;4242692;28;20218;-85
2022/05/20 07:06:08;;;;;;;9.60;5.10;;;15.80;99.90;;;;;;4218954;28;20054;-85
2022/05/20 07:08:09;;;;;;;10.45;5.13;;;15.70;99.90;;;;;;4228570;28;20048;-84
2022/05/20 07:10:11;;;;;;;10.20;5.28;;;15.80;99.90;;;;;;4247105;28;20574;-88
2022/05/20 07:12:12;;;;;;;8.82;4.25;;;15.90;99.90;;;;;;4213874;28;20052;-86
2022/05/20 07:14:13;;;;;;;9.82;4.25;;;15.90;99.90;;;;;;4244486;28;20043;-87
2022/05/20 07:16:14;;;;;;;8.07;4.20;;;16.00;99.90;;;;;;4222589;28;20447;-84
2022/05/20 07:18:18;;;;;;;9.43;4.82;;;16.10;99.90;;;;;;4201954;28;20477;-86
2022/05/20 07:20:18;;;;;;;6.38;3.70;;;16.30;99.90;;;;;;4237855;27;20044;-84
2022/05/20 07:22:20;;;;;;;10.35;4.15;;;16.50;99.90;;;;;;4230017;28;20054;-84
2022/05/20 07:24:21;;;;;;;10.60;4.00;;;16.60;99.90;;;;;;4244875;28;20164;-83
2022/05/20 07:26:21;;;;;;;11.68;4.45;;;16.60;99.90;;;;;;4243425;28;20047;-84
2022/05/20 07:28:22;;;;;;;13.55;5.70;;;16.50;99.90;;;;;;4219252;28;20576;-85
2022/05/20 07:30:24;;;;;;;8.95;4.10;;;16.40;99.90;;;;;;4236016;28;20038;-85
2022/05/20 07:32:26;;;;;;;8.48;3.35;;;16.40;99.90;;;;;;4240571;28;20494;-85
2022/05/20 07:34:27;;;;;;;8.35;3.42;;;16.20;99.90;;;;;;4223612;28;20111;-85
2022/05/20 07:36:28;;;;;;;6.40;3.67;;;16.20;99.90;;;;;;4219076;28;20040;-87
2022/05/20 07:38:29;;;;;;;10.05;4.25;;;16.30;99.90;;;;;;4235790;28;20448;-86
2022/05/20 07:40:29;;;;;;;7.90;3.92;;;16.20;99.90;;;;;;4241709;28;20046;-85
2022/05/20 07:42:31;;;;;;;8.20;3.45;;;16.30;99.90;;;;;;4244805;28;20144;-84
2022/05/20 07:44:33;;;;;;;11.48;4.55;;;16.20;99.90;;;;;;4230137;28;20042;-85
2022/05/20 07:46:34;;;;;;;10.30;4.00;;;16.10;99.90;;;;;;4248045;27;20039;-85
2022/05/20 07:48:35;;;;;;;11.55;3.55;;;16.00;99.90;;;;;;4243742;27;20480;-85
2022/05/20 07:50:45;;;;;;;8.90;3.92;;;16.00;99.90;;;;;;4239371;27;20132;-85
2022/05/20 07:55:10;;;;;;;5.47;3.20;;;15.80;99.90;;;;;;4238118;27;20092;-86
2022/05/20 07:57:14;;;;;;;6.55;3.10;;;16.00;99.90;;;;;;4247164;27;20045;-86
2022/05/20 07:59:25;;;;;;;5.93;3.00;;;15.80;99.90;;;;;;4238343;27;20049;-86
2022/05/20 08:01:30;;;;;;;6.22;3.15;;;15.90;99.90;;;;;;4245823;27;20490;-85
2022/05/20 08:05:57;;;;;;;7.95;3.45;;;16.40;99.90;;;;;;4245604;27;20047;-85
2022/05/20 08:08:01;;;;;;;4.95;2.55;;;16.50;99.90;;;;;;4235281;27;20043;-86
2022/05/20 08:10:09;;;;;;;7.30;3.22;;;16.70;99.90;;;;;;4246343;27;20107;-86
2022/05/20 08:12:10;;;;;;;8.35;2.38;;;16.80;99.90;;;;;;4250283;27;20058;-86
2022/05/20 08:14:12;;;;;;;6.70;3.50;;;16.70;99.90;;;;;;4246529;27;20139;-85
2022/05/20 08:16:13;;;;;;;6.75;2.47;;;16.70;99.90;;;;;;4246835;27;20035;-85
2022/05/20 08:18:17;;;;;;;6.28;2.80;;;16.90;99.90;;;;;;4249195;27;20039;-86
2022/05/20 08:20:25;;;;;;;4.72;2.28;;;16.90;99.80;;;;;;4247443;27;20087;-86
2022/05/20 08:22:26;;;;;;;6.07;2.80;;;16.90;99.20;;;;;;4247111;27;20075;-85
2022/05/20 08:24:27;;;;;;;8.63;2.55;;;16.90;99.50;;;;;;4246582;27;20376;-87
2022/05/20 08:26:28;;;;;;;7.00;2.65;;;17.20;99.50;;;;;;4245791;27;20048;-87
2022/05/20 08:28:29;;;;;;;8.25;2.80;;;17.70;99.50;;;;;;4227761;28;20043;-86
2022/05/20 08:30:31;;;;;;;7.90;2.50;;;17.80;98.60;;;;;;4249316;27;20049;-85
2022/05/20 08:32:33;;;;;;;6.60;1.85;;;18.00;98.00;;;;;;4236769;27;20039;-86
2022/05/20 08:34:33;;;;;;;13.98;2.90;;;18.20;98.10;;;;;;4246829;27;20035;-85
2022/05/20 08:36:35;;;;;;;7.35;1.85;;;18.40;97.50;;;;;;4238113;27;20046;-85
2022/05/20 08:38:36;;;;;;;11.32;2.22;;;18.50;97.40;;;;;;4236093;27;20114;-85
2022/05/20 08:40:47;;;;;;;4.40;2.10;;;18.60;96.90;;;;;;4249050;27;20081;-85
2022/05/20 08:42:51;;;;;;;4.95;2.35;;;18.60;96.00;;;;;;4247025;27;20554;-85
2022/05/20 08:44:52;;;;;;;7.22;2.30;;;18.40;96.50;;;;;;4246317;27;20038;-86
2022/05/20 08:47:21;;;;;;;5.53;2.95;;;18.30;96.70;;;;;;4244981;27;20088;-86
2022/05/20 08:49:24;;;;;;;8.15;2.53;;;18.20;95.90;;;;;;4245992;27;20173;-85
2022/05/20 08:51:33;;;;;;;6.13;3.08;;;18.20;96.70;;;;;;4245425;27;20039;-85
2022/05/20 08:53:45;;;;;;;6.18;2.92;;;18.20;96.60;;;;;;4239823;27;20040;-85
2022/05/20 08:55:46;;;;;;;9.25;3.20;;;18.10;96.30;;;;;;4235364;27;20421;-85
2022/05/20 08:57:57;;;;;;;5.88;2.03;;;18.10;96.40;;;;;;4244158;27;20041;-86
2022/05/20 08:59:58;;;;;;;8.32;2.40;;;18.30;96.70;;;;;;4227824;28;20055;-85
2022/05/20 09:02:00;;;;;;;7.22;2.10;;;18.40;96.60;;;;;;4236815;27;20048;-85
2022/05/20 09:04:01;;;;;;;5.68;2.13;;;18.80;96.50;;;;;;4248631;27;20043;-85
2022/05/20 09:06:12;;;;;;;8.13;2.25;;;18.90;95.90;;;;;;4245572;27;20122;-85
2022/05/20 09:08:19;;;;;;;4.78;1.80;;;19.00;95.50;;;;;;4237284;27;20411;-84
2022/05/20 09:10:43;;;;;;;4.38;2.17;;;19.00;95.20;;;;;;4245395;27;20047;-85
2022/05/20 09:12:46;;;;;;;4.50;2.90;;;19.00;93.00;;;;;;4226393;28;20047;-85
2022/05/20 09:17:23;;;;;;;4.15;2.05;;;19.20;93.30;;;;;;4220329;28;20048;-85
2022/05/20 09:19:27;;;;;;;3.72;1.90;;;19.40;93.60;;;;;;4243000;27;20119;-84
2022/05/20 09:21:41;;;;;;;4.13;1.50;;;19.50;93.40;;;;;;4237630;27;20130;-85
2022/05/20 09:23:53;;;;;;;3.00;1.98;;;19.80;93.00;;;;;;4240753;27;20050;-85
2022/05/20 09:26:10;;;;;;;5.22;1.88;;;19.80;92.00;;;;;;4241720;27;20042;-85
2022/05/20 09:28:44;;;;;;;7.57;1.85;;;19.70;91.90;;;;;;4245236;27;20047;-85
2022/05/20 09:30:51;;;;;;;4.72;2.30;;;20.00;92.40;;;;;;4245820;27;20039;-85
2022/05/20 09:33:23;;;;;;;4.60;1.95;;;20.20;92.20;;;;;;4236102;27;20495;-85
2022/05/20 09:35:30;;;;;;;3.97;2.22;;;20.10;91.60;;;;;;4219498;27;20046;-86
2022/05/20 09:37:34;;;;;;;6.38;2.30;;;20.20;92.30;;;;;;4226095;28;20071;-85
2022/05/20 09:39:38;;;;;;;6.53;2.00;;;20.30;92.10;;;;;;4245500;27;20035;-85
2022/05/20 09:41:54;;;;;;;3.97;2.05;;;20.40;91.70;;;;;;4243142;27;20071;-86
2022/05/20 09:44:00;;;;;;;5.28;2.60;;;20.30;91.40;;;;;;4235864;27;20036;-85
2022/05/20 09:46:01;;;;;;;4.38;1.85;;;20.40;91.20;;;;;;4237525;27;20088;-86
2022/05/20 09:48:02;;;;;;;4.70;2.00;;;20.30;91.20;;;;;;4234254;27;20479;-85
2022/05/20 09:50:10;;;;;;;4.25;1.90;;;20.20;91.00;;;;;;4217735;28;20094;-86
2022/05/20 09:52:22;;;;;;;6.73;2.40;;;20.10;91.20;;;;;;4233284;28;20486;-86
2022/05/20 09:54:30;;;;;;;5.53;2.20;;;20.10;90.50;;;;;;4230255;28;20040;-85
2022/05/20 09:56:33;;;;;;;4.80;1.92;;;20.10;90.90;;;;;;4232826;28;20082;-87
2022/05/20 09:58:34;;;;;;;3.40;2.13;;;20.10;90.90;;;;;;4214340;28;20504;-87
2022/05/20 10:00:36;;;;;;;5.15;2.33;;;20.10;90.80;;;;;;4232027;28;20050;-85
2022/05/20 10:03:07;;;;;;;5.57;2.10;;;20.20;90.90;;;;;;4233134;28;20035;-86
2022/05/20 10:05:14;;;;;;;4.90;2.30;;;20.30;90.10;;;;;;4233002;28;20499;-86
2022/05/20 10:07:30;;;;;;;7.07;1.98;;;20.20;90.80;;;;;;4214533;28;20052;-86
2022/05/20 10:09:41;;;;;;;4.80;2.20;;;20.30;91.00;;;;;;4233069;28;20047;-86
2022/05/20 10:11:57;;;;;;;3.88;1.90;;;20.40;90.70;;;;;;4232683;28;20487;-86
2022/05/20 10:14:03;;;;;;;5.25;1.90;;;20.40;88.20;;;;;;4232849;28;20115;-86
2022/05/20 10:16:19;;;;;;;6.72;2.15;;;20.20;89.20;;;;;;4232536;28;20055;-87
2022/05/20 10:18:49;;;;;;;7.13;2.00;;;20.00;89.00;;;;;;4232119;28;20075;-87
2022/05/20 10:21:08;;;;;;;4.47;2.20;;;19.80;86.30;;;;;;4214322;28;20056;-87
2022/05/20 10:23:09;;;;;;;;;;;19.70;89.10;;;;;;4214506;28;20504;-86
2022/05/20 10:25:38;;;;;;;6.65;2.28;;;19.70;88.40;;;;;;4213979;28;20011;-85
2022/05/20 10:27:45;;;;;;;;;;;19.70;90.20;;;;;;4200774;28;20069;-83
2022/05/20 10:32:49;;;;;;;3.35;1.77;;;20.00;89.90;;;;;;4232077;28;20039;-82
2022/05/20 10:34:50;;;;;;;5.15;1.60;;;20.10;88.90;;;;;;4214152;28;20048;-83
2022/05/20 10:36:53;;;;;;;3.60;1.70;;;20.20;90.10;;;;;;4213840;28;20162;-86
2022/05/20 10:39:21;;;;;;;3.15;1.85;;;20.30;89.70;;;;;;4213490;28;20138;-83
2022/05/20 10:41:24;;;;;;;3.28;1.55;;;20.20;88.00;;;;;;4230476;28;20035;-86
2022/05/20 10:49:02;;;;;;;5.95;1.70;;;20.30;88.50;;;;;;4248523;27;20058;-86
2022/05/20 10:51:37;;;;;;;4.28;1.70;;;20.20;84.00;;;;;;4248933;27;20046;-87
2022/05/20 10:53:54;;;;;;;4.13;1.50;;;20.20;86.50;;;;;;4248987;27;20395;-85
2022/05/20 10:56:16;;;;;;;4.00;1.98;;;20.40;88.50;;;;;;4248554;27;20086;-85
2022/05/20 10:58:39;;;;;;;4.70;2.25;;;20.30;84.50;;;;;;4230446;28;20046;-86
2022/05/20 11:00:50;;;;;;;4.65;1.95;;;20.20;86.20;;;;;;4221459;28;20175;-85
2022/05/20 11:03:17;;;;;;;5.78;2.63;;;20.40;86.20;;;;;;4247840;27;20082;-83
2022/05/20 11:05:18;;;;;;;4.35;1.88;;;20.50;83.20;;;;;;4248382;28;20035;-84
2022/05/20 11:08:00;;;;;;;4.93;1.83;;;20.50;86.00;;;;;;4248472;28;20072;-84
2022/05/20 11:10:01;;;;;;;4.45;1.73;;;20.50;82.90;;;;;;4229612;28;20044;-83
2022/05/20 11:12:04;;;;;;;5.25;2.60;;;20.60;85.80;;;;;;4230044;28;20491;-83
2022/05/20 11:14:25;;;;;;;5.13;2.83;;;20.80;86.10;;;;;;4248200;28;20035;-84
2022/05/20 11:16:51;;;;;;;6.07;2.13;;;21.00;84.30;;;;;;4248301;28;20039;-83
2022/05/20 11:19:13;;;;;;;7.50;2.53;;;21.20;80.90;;;;;;4248174;27;20047;-84
2022/05/20 11:21:33;;;;;;;4.50;2.70;;;20.90;78.80;;;;;;4248609;27;20051;-83
2022/05/20 11:23:43;;;;;;;7.07;3.40;;;20.70;82.20;;;;;;4246138;27;20035;-83
2022/05/20 11:25:53;;;;;;;5.80;3.25;;;20.50;83.10;;;;;;4235692;28;20051;-87